6TE0 weather

Skalitsky Airport
Edcouch, Texas, United States

Public forecast

Using degrees Fahrenheit for public forecast. Weather courtesy of forecast.io.

Closest aviation weather report (METAR) to Skalitsky Airport

Closest report is Mid Valley Airport, 6.9 nm (12.8 km) S. Retrieved 2019/10/17 07:35 UTC (15 minutes ago):

KTXW 170735Z AUTO 33011G18KT 10SM OVC028 17/11 A3001 RMK AO2 T01670110

Closest aviation forecast (TAF) to Skalitsky Airport

Closest forecast is Valley International Airport, 16.3 nm (30.2 km) ESE. Retrieved 2019/10/17 06:42 UTC (1 hour ago):

TAF KHRL 170539Z 1706/1806 34012G18KT P6SM OVC020 TEMPO 1709/1713 P6SM SHRA OVC009 FM171300 35011KT P6SM VCSH OVC025 FM180000 36009KT P6SM OVC035